Oak Hill, WV

1:15 PM EST on February 09, 2016 (GMT -0500)
F.I.T. - Oyler Ave. | | Change Station
CLOSE
Current Station
Personal Weather Station
Location: Oak Hill, WV
Elevation: 1988 ft
Nearby Weather Stations
Active Advisory: Winter Weather Advisory Active Notice: Public Information Statement

Elev 1988 ft 37.99 °N, 81.15 °W | Updated 0 second ago

Overcast
Overcast
20.8 °F
Feels Like 21 °F
N
0.0
Wind Variable Wind from WSW
Gusts 0.0 mph

Today
High -- | Low -- °F
--% Chance of Precip.
Yesterday
High -- | Low -- °F
Precip. -- in
Pressure 29.71 in
Visibility 7.0 miles
Clouds Few 1600 ft
Mostly Cloudy 2300 ft
Overcast 3000 ft
Windchill 21 °F
Dew Point 17 °F
Humidity 84%
Rainfall 0.00 in
Snow Depth Not available.
7:21 AM 5:56 PM
New Moon, 2% visible
METAR KBKW 091751Z AUTO 29011KT 7SM -SN FEW016 BKN023 OVC030 M06/M10 A2961 RMK AO2 SLP061 P0000 60000 T10611100 11056 21067 58006
Pressure 29.71 in
Visibility 7.0 miles
Clouds Few 1600 ft
Mostly Cloudy 2300 ft
Overcast 3000 ft
Windchill 21 °F
Dew Point 17 °F
Humidity 84%
Rainfall 0.00 in
Snow Depth Not available.
7:21 AM 5:56 PM
New Moon, 2% visible
METAR KBKW 091751Z AUTO 29011KT 7SM -SN FEW016 BKN023 OVC030 M06/M10 A2961 RMK AO2 SLP061 P0000 60000 T10611100 11056 21067 58006

10-Day Weather Forecast

Almanac

Astronomy

Feb. 09, 2016 Rise Set
Actual Time
Civil Twilight
Nautical Twilight
Astronomical Twilight
Moon
Length of Visible Light
Length of Day
Tomorrow will be .
, % of the Moon is Illuminated

Today's Extremes

State Highs State Lows

Community

WunderPhotos

Upload Photos

1,891,651 photos uploaded!

WunderBlog® & News

Nearby

Air Quality

  Air Quality AQ Index Pollutant
Not available.

Snow Depth

Station Depth Elevation

Earthquake Activity

City Distance Mag. Time & Date
Minimum magnitude displayed is 2.5.

Coastal Water Temperatures

Place Temperature

Stations

Nearby Weather Stations

Station Location Temp. Windchill Dew Point Humidity Wind Precip. Elev Updated Type
                   

Watches & Warnings

Winter Weather Advisory
Issued: 11:37 AM EST Feb. 9, 2016 – National Weather Service

... Winter Weather Advisory remains in effect until 7 am EST
Wednesday...

* hazard types... snow showers of varying intensity.

* Total snow accumulations... 2 to 5 inches in southern
Ohio... northeast Kentucky... and southern West Virginia... 4 to 8
inches in portions of north central West Virginia.

* Impacts... travel may be difficult at times.Wet snow last night
may make for ice beneath the snow... making the roads that much
more treacherous. Visibilities will be limited at times.

Precautionary/preparedness actions...

A Winter Weather Advisory for snow means that periods of snow
will cause primarily travel difficulties. Be prepared for snow
covered roads and limited visibilities... and use caution while
driving.